METAR Data
IDs: Format: Raw Decoded Include TAF

Data at: 1718 UTC 26 Oct 2021

PAIM 261655Z AUTO 00000KT 10SM SCT026 BKN065 M07/M08 A2934 RMK AO2 SLP961 T10751078
PAIM 261555Z AUTO 00000KT 10SM FEW007 BKN025 BKN085 M07/M08 A2933 RMK AO2 SLP956 T10731076
PAIM 261551Z AUTO 00000KT 10SM FEW008 BKN025 BKN085 M07/M07 A2933 RMK AO2 SLP956
PAIM 261455Z AUTO 00000KT 10SM FEW029 BKN085 M07/M07 A2931 RMK AO2 SLP953 T10711074 52006
PAIM 261451Z AUTO 00000KT 10SM FEW028 BKN085 M07/M07 A2931 RMK AO2 SLP953
PAIM 261355Z AUTO 00000KT 10SM FEW042 BKN085 M07/M07 A2931 RMK AO2 SLP949 T10661068
PAIM 261255Z AUTO 00000KT 10SM FEW001 BKN085 M06/M06 A2930 RMK AO2 SLP946 T10611063
PAIM 261211Z AUTO VRB03KT 10SM SCT003 SCT044 BKN085 M06/M07 A2929 RMK AO2 SLP943
PAIM 261155Z AUTO 00000KT 10SM BKN004 BKN080 M05/M06 A2930 RMK AO2 SLP944 70002 T10551064 11036 21054 52010
PAIM 261151Z AUTO 00000KT 10SM BKN004 BKN080 M05/M06 A2930 RMK AO2 SLP945
PAIM 261131Z AUTO 00000KT 10SM SCT006 BKN043 BKN085 M05/M07 A2930 RMK AO2 SLP943
PAIM 261055Z AUTO VRB04KT 10SM SCT042 BKN085 M05/M07 A2929 RMK AO2 SLP940 T10511069
PAIM 260955Z AUTO VRB06KT 10SM FEW043 BKN080 M05/M06 A2928 RMK AO2 SLP936 T10501064
PAIM 260855Z AUTO VRB05KT 10SM FEW041 BKN080 M05/M06 A2927 RMK AO2 SNB0822E0824SHSNB0824E0837 SLP932 T10461057 410211048 52007
PAIM 260851Z AUTO 31007KT 230V050 10SM FEW041 BKN080 M05/M06 A2927 RMK AO2 SLP932
PAIM 260831Z AUTO VRB05KT 10SM -SHSN BKN041 BKN075 M04/M05 A2926 RMK AO2 SLP931
PAIM 260755Z AUTO 28004KT 10SM BKN040 M04/M05 A2926 RMK AO2 SNB0737E0740SHSNB0740E0752 SLP930 T10401055
PAIM 260751Z AUTO VRB05KT 10SM -SHSN BKN040 M04/M05 A2926 RMK AO2 SLP930
PAIM 260655Z AUTO 26006KT 10SM OVC039 M04/M05 A2925 RMK AO2 SHSNB0535E0633 SLP927 T10431051
PAIM 260651Z AUTO 26005KT 10SM OVC039 M04/M05 A2925 RMK AO2 SLP926
PAIM 260611Z AUTO 28004KT 10SM -SHSN FEW029 OVC043 M04/M05 A2925 RMK AO2 SLP926
PAIM 260555Z AUTO 26006KT 10SM -SHSN FEW026 BKN029 OVC042 M04/M05 A2924 RMK AO2 SNB0459E0515SHSNB0503E0513B0535 SLP925 T10SPECI
PAIM 260551Z AUTO 26008KT 10SM -SHSN FEW026 BKN029 OVC042 M04/M05 A2924 RMK AO2 SLP925
PAIM 260531Z AUTO 25006KT 10SM OVC026 M04/M05 A2924 RMK AO2 SLP924
PAIM 260511Z AUTO 24008KT 10SM -SHSN OVC027 M04/M05 A2923 RMK AO2 SLP922
PAIM 260455Z AUTO 25007KT 10SM BKN028 BKN048 M04/M05 A2923 RMK AO2 SLP921 T10431050
PAIM 260451Z AUTO 25007KT 10SM BKN028 BKN048 M04/M05 A2923 RMK AO2 SLP921
PAIM 260411Z AUTO 25007KT 10SM FEW028 BKN046 BKN090 M04/M05 A2922 RMK AO2 SLP919
PAIM 260355Z AUTO 24007KT 10SM BKN045 BKN090 M04/M05 A2922 RMK AO2 SNB0304E0305 SLP918 T10431049
PAIM 260255Z AUTO 25006KT 10SM OVC044 M04/M05 A2921 RMK AO2 SHSNB0146E0203 SLP914 T10411047 52005
PAIM 260211Z AUTO 24008KT 10SM FEW010 FEW015 OVC039 M04/M04 A2921 RMK AO2 SLP914
PAIM 260155Z AUTO 23008KT 10SM -SHSN SCT016 BKN039 BKN047 M04/M04 A2921 RMK AO2 SNB0046E0056SHSNB0056E0117B0146 SLP913 T10391044
PAIM 260151Z AUTO 24007KT 10SM -SHSN SCT016 BKN039 BKN047 M04/M04 A2921 RMK AO2 SLP913
PAIM 260131Z AUTO 24009KT 10SM SCT018 BKN044 M04/M04 A2920 RMK AO2 SLP911
PAIM 260111Z AUTO 24007KT 10SM -SHSN FEW021 BKN037 BKN095 M03/M04 A2920 RMK AO2 SLP911
PAIM 260055Z AUTO 24007KT 10SM -SN FEW022 OVC025 M03/M04 A2920 RMK AO2 SHSNB2355E0046 SLP910 T10321041
PAIM 260051Z AUTO 26006KT 10SM -SN FEW022 OVC025 M03/M04 A2920 RMK AO2 SLP910
PAIM 252355Z AUTO 25007KT 10SM -SHSN SCT018 BKN041 M03/M04 A2920 RMK AO2 SHSNB1603E1640B2139 SLP909 T10301037 11024 21029 52007
PAIM 252251Z AUTO 26004KT 10SM SCT018 OVC038 M02/M04 A2919 RMK AO2 SLP906
PAIM 252231Z AUTO 23007KT 10SM -SN FEW017 OVC035 M03/M03 A2919 RMK AO2 SLP905
PAIM 252156Z 25005KT 10SM -SHSN OVC033 M03/M03 A2919 RMK AO2A SLP905
PAIM 252056Z 23009KT 10SM -SN OVC039 M03/M03 A2918 RMK AO2A SLP901 60002 52003
PAIM 251955Z 24007KT 10SM -SN OVC041 M03/M03 A2918 RMK AO2A SLP902
PAIM 251855Z 23008KT 10SM -SN BKN036 BKN050 OVC090 M03/M03 A2918 RMK AO2A SLP901
PAIM 251755Z 24008KT 10SM -SN BKN028 OVC041 M03/M03 A2917 RMK AO2A SLP900 60002 4/002 57005
PAIM 251658Z 25004KT 10SM -SN OVC021 M02/M03 A2918 RMK AO2A SHRAB1556E1637SHSNB1637E1651SNB1651 SLP901
PAIM 251651Z 24005KT 10SM -SN OVC021 M02/M03 A2918 RMK AO2A SLP901
PAIM 251637Z 00000KT 10SM -SHSN OVC021 M02/M03 A2918 RMK AO2A SLP901
PAIM 251558Z VRB03KT 10SM -SHRA FEW009 BKN025 OVC046 M03/M03 A2918 RMK AO2A SNE1532RAB1551E1553 SLP903
PAIM 251556Z VRB03KT 10SM FEW009 BKN025 OVC046 M03/M03 A2918 RMK AO2A SNE1532RAB1551E1553 SLP903
PAIM 251553Z 00000KT 10SM OVC025 M03/M03 A2918 RMK AO2A SLP903
PAIM 251551Z 00000KT 10SM -RA OVC025 M03/M03 A2918 RMK AO2A SLP903
PAIM 251455Z 16001KT 4SM -SN FEW007 FEW010 OVC041 M03/M03 A2919 RMK AO2A SLP904 60001 5////
PAIM 251450Z 16001KT 4SM -SN FEW007 FEW010 OVC041 M03/M03 A2919 RMK AO2A SLP904 60001 5////
PAIM 251418Z AUTO 00000KT 3SM -SN FEW027 OVC037 M03/M03 A2919 RMK AO2 SLP905
PAIM 251358Z AUTO 00000KT 2 1/2SM -SN FEW028 BKN037 OVC055 M03/M03 A2919 RMK AO2 SLP905
PAIM 251355Z AUTO 00000KT 2 1/2SM -SN BKN037 OVC049 M03/M03 A2919 RMK AO2 SNB1155 SLP905 T10271028
PAIM 251318Z AUTO 10002KT 8SM -SN SCT024 OVC060 M03/M03 A2919 RMK AO2 SLP905
PAIM 251258Z AUTO 24004KT 5SM -SN OVC024 M02/M03 A2920 RMK AO2 SLP906
PAIM 251255Z AUTO 24005KT 5SM -SN FEW023 OVC060 M02/M03 A2920 RMK AO2 SNB1155 SLP906 T10221027
PAIM 251218Z AUTO 00000KT 7SM -SN FEW009 BKN046 OVC065 M03/M03 A2920 RMK AO2 SLP910
PAIM 251155Z AUTO 00000KT 4SM -SN OVC034 M03/M03 A2921 RMK AO2 SNB0955 SLP912 P0002 60005 70008 T10271027 11024 21028 57013
PAIM 251138Z AUTO 00000KT 3SM -SN OVC020 M03/M03 A2922 RMK AO2 SLP914
PAIM 251118Z AUTO 00000KT 1 3/4SM -SN OVC019 M03/M03 A2922 RMK AO2 SLP916
PAIM 251055Z AUTO 00000KT 2SM -SN OVC021 M03/M03 A2923 RMK AO2 SNB0955 SLP918 P0002 T10261027
PAIM 251038Z AUTO 00000KT 2 1/2SM -SN OVC024 M03/M03 A2923 RMK AO2 SLP919
PAIM 251018Z AUTO 00000KT 1 3/4SM -SN OVC022 M03/M02 A2924 RMK AO2 SLP920
PAIM 250958Z AUTO 00000KT 2 1/2SM -SN OVC015 M03/M02 A2924 RMK AO2 SLP922
PAIM 250955Z AUTO 00000KT 2 1/2SM -SN OVC014 M03/M02 A2924 RMK AO2 SNB0755 SLP922 T10261025
PAIM 250918Z AUTO 00000KT 5SM -SN OVC013 M03/M03 A2925 RMK AO2 SLP925
PAIM 250858Z AUTO 00000KT 6SM -SN OVC017 M03/M03 A2925 RMK AO2 SLP926
PAIM 250855Z AUTO 00000KT 6SM -SN OVC005 M03/M03 A2925 RMK AO2 SNB0755 SLP926 P0000 60002 T10271026 410131032 57011
PAIM 250755Z AUTO 00000KT 5SM -SN BKN003 OVC044 M03/M02 A2926 RMK AO2 SNB0555 SLP930 T10271025
PAIM 250738Z AUTO 14002KT 7SM -SN BKN003 OVC034 M03/M02 A2926 RMK AO2 SLP930
PAIM 250718Z AUTO 00000KT 4SM -SN SCT003 OVC032 M03/M02 A2926 RMK AO2 SLP930
PAIM 250655Z AUTO 00000KT 4SM -SN OVC032 M02/M02 A2927 RMK AO2 SNB0555 SLP932 P0000 T10251024
PAIM 250638Z AUTO 00000KT 2SM -SN OVC031 M02/M02 A2928 RMK AO2 SLP934
PAIM 250618Z AUTO 17001KT 4SM -SN OVC030 M02/M02 A2928 RMK AO2 SLP936
PAIM 250558Z AUTO 00000KT 3SM -SN OVC026 M02/M02 A2928 RMK AO2 SLP937
PAIM 250555Z AUTO 00000KT 2 1/2SM -SN OVC025 M02/M02 A2929 RMK AO2 SNB0355 SLP938 P0002 60003 T10241022 11015 21024 57016